sensor_id;sensor_type;location;lat;lon;timestamp;P1;durP1;ratioP1;P2;durP2;ratioP2
18104;SDS011;9179;50.968;3.134;2023-03-23T00:01:46;2.85;;;2.20;;
18104;SDS011;9179;50.968;3.134;2023-03-23T00:04:14;2.15;;;1.95;;
18104;SDS011;9179;50.968;3.134;2023-03-23T00:06:43;3.88;;;2.10;;
18104;SDS011;9179;50.968;3.134;2023-03-23T00:09:11;1.85;;;1.75;;
18104;SDS011;9179;50.968;3.134;2023-03-23T00:11:40;2.58;;;2.45;;
18104;SDS011;9179;50.968;3.134;2023-03-23T00:14:08;2.30;;;2.10;;
18104;SDS011;9179;50.968;3.134;2023-03-23T00:16:38;2.33;;;2.20;;
18104;SDS011;9179;50.968;3.134;2023-03-23T00:19:07;2.42;;;2.33;;
18104;SDS011;9179;50.968;3.134;2023-03-23T00:21:35;4.47;;;2.47;;
18104;SDS011;9179;50.968;3.134;2023-03-23T00:24:06;2.35;;;2.15;;
18104;SDS011;9179;50.968;3.134;2023-03-23T00:26:35;2.00;;;1.90;;
18104;SDS011;9179;50.968;3.134;2023-03-23T00:29:05;1.98;;;1.88;;
18104;SDS011;9179;50.968;3.134;2023-03-23T00:31:33;2.22;;;1.92;;
18104;SDS011;9179;50.968;3.134;2023-03-23T00:34:01;2.13;;;2.03;;
18104;SDS011;9179;50.968;3.134;2023-03-23T00:36:30;2.42;;;2.10;;
18104;SDS011;9179;50.968;3.134;2023-03-23T00:39:00;3.10;;;2.60;;
18104;SDS011;9179;50.968;3.134;2023-03-23T00:41:28;1.80;;;1.70;;
18104;SDS011;9179;50.968;3.134;2023-03-23T00:43:56;3.05;;;2.28;;
18104;SDS011;9179;50.968;3.134;2023-03-23T00:46:25;2.92;;;1.80;;
18104;SDS011;9179;50.968;3.134;2023-03-23T00:48:53;2.28;;;1.98;;
18104;SDS011;9179;50.968;3.134;2023-03-23T00:51:20;2.45;;;1.70;;
18104;SDS011;9179;50.968;3.134;2023-03-23T00:53:47;2.17;;;1.92;;
18104;SDS011;9179;50.968;3.134;2023-03-23T00:56:14;2.42;;;2.33;;
18104;SDS011;9179;50.968;3.134;2023-03-23T00:58:42;1.95;;;1.85;;
18104;SDS011;9179;50.968;3.134;2023-03-23T01:01:09;2.13;;;1.95;;
18104;SDS011;9179;50.968;3.134;2023-03-23T01:03:36;2.05;;;1.95;;
18104;SDS011;9179;50.968;3.134;2023-03-23T01:06:04;2.00;;;1.90;;
18104;SDS011;9179;50.968;3.134;2023-03-23T01:08:33;2.17;;;1.80;;
18104;SDS011;9179;50.968;3.134;2023-03-23T01:11:04;2.03;;;1.80;;
18104;SDS011;9179;50.968;3.134;2023-03-23T01:13:32;2.20;;;2.03;;
18104;SDS011;9179;50.968;3.134;2023-03-23T01:16:01;2.05;;;1.95;;
18104;SDS011;9179;50.968;3.134;2023-03-23T01:18:28;5.22;;;1.90;;
18104;SDS011;9179;50.968;3.134;2023-03-23T01:20:55;1.90;;;1.80;;
18104;SDS011;9179;50.968;3.134;2023-03-23T01:23:22;2.17;;;1.60;;
18104;SDS011;9179;50.968;3.134;2023-03-23T01:25:49;2.53;;;1.70;;
18104;SDS011;9179;50.968;3.134;2023-03-23T01:28:19;1.80;;;1.70;;
18104;SDS011;9179;50.968;3.134;2023-03-23T01:30:46;1.48;;;1.38;;
18104;SDS011;9179;50.968;3.134;2023-03-23T01:33:14;1.52;;;1.52;;
18104;SDS011;9179;50.968;3.134;2023-03-23T01:35:41;2.83;;;1.70;;
18104;SDS011;9179;50.968;3.134;2023-03-23T01:38:08;1.92;;;1.60;;
18104;SDS011;9179;50.968;3.134;2023-03-23T01:40:35;2.15;;;1.90;;
18104;SDS011;9179;50.968;3.134;2023-03-23T01:43:02;1.70;;;1.60;;
18104;SDS011;9179;50.968;3.134;2023-03-23T01:45:30;4.15;;;2.20;;
18104;SDS011;9179;50.968;3.134;2023-03-23T01:48:01;1.80;;;1.70;;
18104;SDS011;9179;50.968;3.134;2023-03-23T01:50:42;2.10;;;2.00;;
18104;SDS011;9179;50.968;3.134;2023-03-23T01:53:13;1.85;;;1.75;;
18104;SDS011;9179;50.968;3.134;2023-03-23T01:55:41;2.70;;;1.85;;
18104;SDS011;9179;50.968;3.134;2023-03-23T01:58:13;1.35;;;1.25;;
18104;SDS011;9179;50.968;3.134;2023-03-23T02:00:43;1.45;;;1.40;;
18104;SDS011;9179;50.968;3.134;2023-03-23T02:03:11;3.28;;;1.88;;
18104;SDS011;9179;50.968;3.134;2023-03-23T02:05:42;2.40;;;1.30;;
18104;SDS011;9179;50.968;3.134;2023-03-23T02:08:10;1.95;;;1.85;;
18104;SDS011;9179;50.968;3.134;2023-03-23T02:10:38;2.53;;;1.60;;
18104;SDS011;9179;50.968;3.134;2023-03-23T02:13:07;1.27;;;1.23;;
18104;SDS011;9179;50.968;3.134;2023-03-23T02:15:38;2.85;;;1.60;;
18104;SDS011;9179;50.968;3.134;2023-03-23T02:18:13;2.00;;;1.50;;
18104;SDS011;9179;50.968;3.134;2023-03-23T02:27:01;2.15;;;1.90;;
18104;SDS011;9179;50.968;3.134;2023-03-23T02:29:37;2.78;;;2.15;;
18104;SDS011;9179;50.968;3.134;2023-03-23T02:32:21;3.20;;;2.08;;
18104;SDS011;9179;50.968;3.134;2023-03-23T02:35:06;3.13;;;1.98;;
18104;SDS011;9179;50.968;3.134;2023-03-23T02:37:38;5.20;;;1.77;;
18104;SDS011;9179;50.968;3.134;2023-03-23T02:40:11;3.47;;;2.20;;
18104;SDS011;9179;50.968;3.134;2023-03-23T02:42:46;2.80;;;1.80;;
18104;SDS011;9179;50.968;3.134;2023-03-23T02:45:16;2.35;;;2.13;;
18104;SDS011;9179;50.968;3.134;2023-03-23T02:47:46;3.30;;;1.88;;
18104;SDS011;9179;50.968;3.134;2023-03-23T02:50:16;2.53;;;1.70;;
18104;SDS011;9179;50.968;3.134;2023-03-23T02:52:47;3.10;;;2.10;;
18104;SDS011;9179;50.968;3.134;2023-03-23T02:55:16;4.15;;;2.20;;
18104;SDS011;9179;50.968;3.134;2023-03-23T02:57:46;3.40;;;2.10;;
18104;SDS011;9179;50.968;3.134;2023-03-23T03:00:15;4.13;;;1.80;;
18104;SDS011;9179;50.968;3.134;2023-03-23T03:02:44;3.55;;;2.40;;
18104;SDS011;9179;50.968;3.134;2023-03-23T03:05:20;3.95;;;2.38;;
18104;SDS011;9179;50.968;3.134;2023-03-23T03:08:01;3.55;;;2.10;;
18104;SDS011;9179;50.968;3.134;2023-03-23T03:10:40;4.47;;;2.13;;
18104;SDS011;9179;50.968;3.134;2023-03-23T03:13:14;3.75;;;2.35;;
18104;SDS011;9179;50.968;3.134;2023-03-23T03:15:49;7.50;;;3.08;;
18104;SDS011;9179;50.968;3.134;2023-03-23T03:18:21;4.30;;;2.20;;
18104;SDS011;9179;50.968;3.134;2023-03-23T03:20:54;3.75;;;1.80;;
18104;SDS011;9179;50.968;3.134;2023-03-23T03:23:26;5.20;;;1.67;;
18104;SDS011;9179;50.968;3.134;2023-03-23T03:25:54;2.67;;;2.03;;
18104;SDS011;9179;50.968;3.134;2023-03-23T03:28:24;3.90;;;2.08;;
18104;SDS011;9179;50.968;3.134;2023-03-23T03:30:53;5.57;;;2.45;;
18104;SDS011;9179;50.968;3.134;2023-03-23T03:33:22;4.90;;;1.95;;
18104;SDS011;9179;50.968;3.134;2023-03-23T03:35:51;2.53;;;1.83;;
18104;SDS011;9179;50.968;3.134;2023-03-23T03:38:21;5.90;;;2.08;;
18104;SDS011;9179;50.968;3.134;2023-03-23T03:40:48;3.55;;;1.95;;
18104;SDS011;9179;50.968;3.134;2023-03-23T03:43:15;2.20;;;2.00;;
18104;SDS011;9179;50.968;3.134;2023-03-23T03:45:42;5.68;;;2.28;;
18104;SDS011;9179;50.968;3.134;2023-03-23T03:48:09;2.95;;;2.08;;
18104;SDS011;9179;50.968;3.134;2023-03-23T03:50:36;6.32;;;1.73;;
18104;SDS011;9179;50.968;3.134;2023-03-23T03:53:05;5.35;;;2.17;;
18104;SDS011;9179;50.968;3.134;2023-03-23T03:55:32;5.60;;;2.17;;
18104;SDS011;9179;50.968;3.134;2023-03-23T03:58:00;3.22;;;2.00;;
18104;SDS011;9179;50.968;3.134;2023-03-23T04:00:29;5.03;;;1.90;;
18104;SDS011;9179;50.968;3.134;2023-03-23T04:02:56;4.30;;;2.47;;
18104;SDS011;9179;50.968;3.134;2023-03-23T04:05:25;3.97;;;2.75;;
18104;SDS011;9179;50.968;3.134;2023-03-23T04:07:54;7.68;;;3.13;;
18104;SDS011;9179;50.968;3.134;2023-03-23T04:10:28;6.50;;;3.53;;
18104;SDS011;9179;50.968;3.134;2023-03-23T04:12:56;4.03;;;2.50;;
18104;SDS011;9179;50.968;3.134;2023-03-23T04:15:24;4.10;;;2.58;;
18104;SDS011;9179;50.968;3.134;2023-03-23T04:17:52;4.15;;;2.63;;
18104;SDS011;9179;50.968;3.134;2023-03-23T04:20:21;6.82;;;2.63;;
18104;SDS011;9179;50.968;3.134;2023-03-23T04:22:49;8.43;;;3.30;;
18104;SDS011;9179;50.968;3.134;2023-03-23T04:25:18;8.23;;;2.90;;
18104;SDS011;9179;50.968;3.134;2023-03-23T04:27:48;7.15;;;3.15;;
18104;SDS011;9179;50.968;3.134;2023-03-23T04:30:17;7.95;;;2.50;;
18104;SDS011;9179;50.968;3.134;2023-03-23T04:32:45;7.60;;;2.55;;
18104;SDS011;9179;50.968;3.134;2023-03-23T04:35:15;7.80;;;2.90;;
18104;SDS011;9179;50.968;3.134;2023-03-23T04:37:43;5.25;;;2.55;;
18104;SDS011;9179;50.968;3.134;2023-03-23T04:40:11;7.00;;;2.80;;
18104;SDS011;9179;50.968;3.134;2023-03-23T04:42:40;3.75;;;2.83;;
18104;SDS011;9179;50.968;3.134;2023-03-23T04:45:12;5.80;;;2.78;;
18104;SDS011;9179;50.968;3.134;2023-03-23T04:47:41;8.10;;;3.20;;
18104;SDS011;9179;50.968;3.134;2023-03-23T04:50:18;5.72;;;2.65;;
18104;SDS011;9179;50.968;3.134;2023-03-23T04:52:49;4.47;;;2.95;;
18104;SDS011;9179;50.968;3.134;2023-03-23T04:55:16;5.53;;;3.67;;
18104;SDS011;9179;50.968;3.134;2023-03-23T04:57:44;5.72;;;3.83;;
18104;SDS011;9179;50.968;3.134;2023-03-23T05:00:14;5.57;;;2.95;;
18104;SDS011;9179;50.968;3.134;2023-03-23T05:02:42;5.70;;;2.85;;
18104;SDS011;9179;50.968;3.134;2023-03-23T05:05:10;6.18;;;3.10;;
18104;SDS011;9179;50.968;3.134;2023-03-23T05:07:38;7.95;;;2.97;;
18104;SDS011;9179;50.968;3.134;2023-03-23T05:10:06;5.25;;;3.17;;
18104;SDS011;9179;50.968;3.134;2023-03-23T05:12:35;10.38;;;3.53;;
18104;SDS011;9179;50.968;3.134;2023-03-23T05:15:02;10.13;;;3.20;;
18104;SDS011;9179;50.968;3.134;2023-03-23T05:17:32;4.55;;;2.53;;
18104;SDS011;9179;50.968;3.134;2023-03-23T05:19:59;7.90;;;3.08;;
18104;SDS011;9179;50.968;3.134;2023-03-23T05:22:30;7.53;;;2.85;;
18104;SDS011;9179;50.968;3.134;2023-03-23T05:24:57;4.90;;;2.60;;
18104;SDS011;9179;50.968;3.134;2023-03-23T05:27:27;5.57;;;2.25;;
18104;SDS011;9179;50.968;3.134;2023-03-23T05:29:55;4.10;;;2.00;;
18104;SDS011;9179;50.968;3.134;2023-03-23T05:32:23;7.38;;;3.15;;
18104;SDS011;9179;50.968;3.134;2023-03-23T05:34:55;7.03;;;2.53;;
18104;SDS011;9179;50.968;3.134;2023-03-23T05:37:23;5.93;;;1.98;;
18104;SDS011;9179;50.968;3.134;2023-03-23T05:39:51;2.65;;;2.10;;
18104;SDS011;9179;50.968;3.134;2023-03-23T05:42:20;5.97;;;2.55;;
18104;SDS011;9179;50.968;3.134;2023-03-23T05:44:47;3.83;;;1.70;;
18104;SDS011;9179;50.968;3.134;2023-03-23T05:47:14;4.53;;;2.00;;
18104;SDS011;9179;50.968;3.134;2023-03-23T05:49:42;4.60;;;2.25;;
18104;SDS011;9179;50.968;3.134;2023-03-23T05:52:10;3.42;;;2.00;;
18104;SDS011;9179;50.968;3.134;2023-03-23T05:54:37;4.93;;;1.85;;
18104;SDS011;9179;50.968;3.134;2023-03-23T05:57:04;2.42;;;1.77;;
18104;SDS011;9179;50.968;3.134;2023-03-23T05:59:31;3.72;;;2.35;;
18104;SDS011;9179;50.968;3.134;2023-03-23T06:01:59;4.28;;;2.03;;
18104;SDS011;9179;50.968;3.134;2023-03-23T06:04:26;4.55;;;2.67;;
18104;SDS011;9179;50.968;3.134;2023-03-23T06:06:53;5.53;;;1.80;;
18104;SDS011;9179;50.968;3.134;2023-03-23T06:09:22;3.85;;;1.88;;
18104;SDS011;9179;50.968;3.134;2023-03-23T06:11:50;5.30;;;1.70;;
18104;SDS011;9179;50.968;3.134;2023-03-23T06:14:17;3.85;;;2.80;;
18104;SDS011;9179;50.968;3.134;2023-03-23T06:16:44;4.50;;;4.10;;
18104;SDS011;9179;50.968;3.134;2023-03-23T06:19:11;12.30;;;5.97;;
18104;SDS011;9179;50.968;3.134;2023-03-23T06:21:38;11.63;;;5.50;;
18104;SDS011;9179;50.968;3.134;2023-03-23T06:24:05;7.88;;;5.32;;
18104;SDS011;9179;50.968;3.134;2023-03-23T06:26:34;9.73;;;3.15;;
18104;SDS011;9179;50.968;3.134;2023-03-23T06:29:02;4.22;;;2.08;;
18104;SDS011;9179;50.968;3.134;2023-03-23T06:31:36;8.98;;;2.72;;
18104;SDS011;9179;50.968;3.134;2023-03-23T06:34:06;2.88;;;2.10;;
18104;SDS011;9179;50.968;3.134;2023-03-23T06:36:34;2.40;;;1.65;;
18104;SDS011;9179;50.968;3.134;2023-03-23T06:39:02;2.80;;;1.95;;
18104;SDS011;9179;50.968;3.134;2023-03-23T06:41:30;4.22;;;1.90;;
18104;SDS011;9179;50.968;3.134;2023-03-23T06:43:59;3.10;;;2.17;;
18104;SDS011;9179;50.968;3.134;2023-03-23T06:46:26;2.80;;;1.70;;
18104;SDS011;9179;50.968;3.134;2023-03-23T06:48:54;2.45;;;1.70;;
18104;SDS011;9179;50.968;3.134;2023-03-23T06:51:22;4.28;;;2.35;;
18104;SDS011;9179;50.968;3.134;2023-03-23T06:53:49;3.15;;;1.85;;
18104;SDS011;9179;50.968;3.134;2023-03-23T06:56:16;6.88;;;2.58;;
18104;SDS011;9179;50.968;3.134;2023-03-23T06:58:43;3.08;;;1.77;;
18104;SDS011;9179;50.968;3.134;2023-03-23T07:01:11;3.35;;;1.80;;
18104;SDS011;9179;50.968;3.134;2023-03-23T07:03:40;4.30;;;2.40;;
18104;SDS011;9179;50.968;3.134;2023-03-23T07:06:08;2.75;;;2.33;;
18104;SDS011;9179;50.968;3.134;2023-03-23T07:08:35;1.92;;;1.65;;
18104;SDS011;9179;50.968;3.134;2023-03-23T07:11:03;4.78;;;1.92;;
18104;SDS011;9179;50.968;3.134;2023-03-23T07:13:30;5.07;;;2.42;;
18104;SDS011;9179;50.968;3.134;2023-03-23T07:15:57;4.15;;;2.70;;
18104;SDS011;9179;50.968;3.134;2023-03-23T07:18:27;2.20;;;2.00;;
18104;SDS011;9179;50.968;3.134;2023-03-23T07:20:53;5.18;;;1.90;;
18104;SDS011;9179;50.968;3.134;2023-03-23T07:23:21;4.97;;;2.05;;
18104;SDS011;9179;50.968;3.134;2023-03-23T07:25:47;2.13;;;1.60;;
18104;SDS011;9179;50.968;3.134;2023-03-23T07:28:14;2.20;;;1.77;;
18104;SDS011;9179;50.968;3.134;2023-03-23T07:30:42;3.00;;;1.38;;
18104;SDS011;9179;50.968;3.134;2023-03-23T07:33:09;1.73;;;1.20;;
18104;SDS011;9179;50.968;3.134;2023-03-23T07:35:38;2.92;;;1.38;;
18104;SDS011;9179;50.968;3.134;2023-03-23T07:38:05;4.03;;;1.80;;
18104;SDS011;9179;50.968;3.134;2023-03-23T07:40:33;3.75;;;1.50;;
18104;SDS011;9179;50.968;3.134;2023-03-23T07:43:01;3.00;;;1.85;;
18104;SDS011;9179;50.968;3.134;2023-03-23T07:45:29;4.70;;;2.10;;
18104;SDS011;9179;50.968;3.134;2023-03-23T07:47:57;5.32;;;2.10;;
18104;SDS011;9179;50.968;3.134;2023-03-23T07:50:25;5.05;;;1.90;;
18104;SDS011;9179;50.968;3.134;2023-03-23T07:52:54;1.58;;;1.30;;
18104;SDS011;9179;50.968;3.134;2023-03-23T07:55:22;3.92;;;1.40;;
18104;SDS011;9179;50.968;3.134;2023-03-23T07:57:50;2.92;;;1.73;;
18104;SDS011;9179;50.968;3.134;2023-03-23T08:00:19;2.60;;;1.60;;
18104;SDS011;9179;50.968;3.134;2023-03-23T08:02:49;3.05;;;1.98;;
18104;SDS011;9179;50.968;3.134;2023-03-23T08:05:17;4.13;;;2.08;;
18104;SDS011;9179;50.968;3.134;2023-03-23T08:07:47;4.50;;;1.77;;
18104;SDS011;9179;50.968;3.134;2023-03-23T08:10:16;3.58;;;1.50;;
18104;SDS011;9179;50.968;3.134;2023-03-23T08:12:44;3.75;;;1.70;;
18104;SDS011;9179;50.968;3.134;2023-03-23T08:15:11;2.83;;;1.80;;
18104;SDS011;9179;50.968;3.134;2023-03-23T08:17:40;5.85;;;1.67;;
18104;SDS011;9179;50.968;3.134;2023-03-23T08:20:08;2.83;;;1.52;;
18104;SDS011;9179;50.968;3.134;2023-03-23T08:22:38;3.92;;;2.10;;
18104;SDS011;9179;50.968;3.134;2023-03-23T08:25:07;6.22;;;2.25;;
18104;SDS011;9179;50.968;3.134;2023-03-23T08:27:37;4.68;;;1.70;;
18104;SDS011;9179;50.968;3.134;2023-03-23T08:30:08;4.57;;;1.90;;
18104;SDS011;9179;50.968;3.134;2023-03-23T08:32:37;2.38;;;1.60;;
18104;SDS011;9179;50.968;3.134;2023-03-23T08:35:05;3.90;;;1.75;;
18104;SDS011;9179;50.968;3.134;2023-03-23T08:37:34;5.47;;;1.70;;
18104;SDS011;9179;50.968;3.134;2023-03-23T08:40:01;2.72;;;1.90;;
18104;SDS011;9179;50.968;3.134;2023-03-23T08:42:34;3.55;;;1.48;;
18104;SDS011;9179;50.968;3.134;2023-03-23T08:45:02;2.72;;;1.38;;
18104;SDS011;9179;50.968;3.134;2023-03-23T08:47:30;1.77;;;1.40;;
18104;SDS011;9179;50.968;3.134;2023-03-23T08:49:57;3.65;;;1.88;;
18104;SDS011;9179;50.968;3.134;2023-03-23T08:52:25;3.72;;;1.35;;
18104;SDS011;9179;50.968;3.134;2023-03-23T08:54:52;2.92;;;1.80;;
18104;SDS011;9179;50.968;3.134;2023-03-23T08:57:19;1.38;;;1.27;;
18104;SDS011;9179;50.968;3.134;2023-03-23T08:59:46;2.40;;;1.30;;
18104;SDS011;9179;50.968;3.134;2023-03-23T09:02:14;1.98;;;1.40;;
18104;SDS011;9179;50.968;3.134;2023-03-23T09:04:41;4.45;;;2.25;;
18104;SDS011;9179;50.968;3.134;2023-03-23T09:07:09;2.42;;;1.50;;
18104;SDS011;9179;50.968;3.134;2023-03-23T09:09:37;1.98;;;1.67;;
18104;SDS011;9179;50.968;3.134;2023-03-23T09:12:05;2.67;;;1.77;;
18104;SDS011;9179;50.968;3.134;2023-03-23T09:14:33;4.15;;;2.20;;
18104;SDS011;9179;50.968;3.134;2023-03-23T09:17:01;2.55;;;2.13;;
18104;SDS011;9179;50.968;3.134;2023-03-23T09:19:29;4.68;;;1.75;;
18104;SDS011;9179;50.968;3.134;2023-03-23T09:21:58;4.40;;;1.73;;
18104;SDS011;9179;50.968;3.134;2023-03-23T09:24:25;4.60;;;2.15;;
18104;SDS011;9179;50.968;3.134;2023-03-23T09:26:52;6.38;;;2.38;;
18104;SDS011;9179;50.968;3.134;2023-03-23T09:29:19;6.25;;;2.90;;
18104;SDS011;9179;50.968;3.134;2023-03-23T09:31:46;3.83;;;2.38;;
18104;SDS011;9179;50.968;3.134;2023-03-23T09:34:13;4.45;;;2.65;;
18104;SDS011;9179;50.968;3.134;2023-03-23T09:36:43;5.75;;;2.58;;
18104;SDS011;9179;50.968;3.134;2023-03-23T09:39:10;5.07;;;2.15;;
18104;SDS011;9179;50.968;3.134;2023-03-23T09:41:45;5.32;;;2.65;;
18104;SDS011;9179;50.968;3.134;2023-03-23T09:44:30;3.60;;;2.20;;
18104;SDS011;9179;50.968;3.134;2023-03-23T09:47:06;3.55;;;2.47;;
18104;SDS011;9179;50.968;3.134;2023-03-23T09:49:40;6.47;;;2.80;;
18104;SDS011;9179;50.968;3.134;2023-03-23T09:52:11;4.22;;;2.10;;
18104;SDS011;9179;50.968;3.134;2023-03-23T09:54:41;4.68;;;2.63;;
18104;SDS011;9179;50.968;3.134;2023-03-23T09:57:11;3.13;;;2.25;;
18104;SDS011;9179;50.968;3.134;2023-03-23T09:59:46;5.07;;;2.17;;
18104;SDS011;9179;50.968;3.134;2023-03-23T10:02:19;6.35;;;3.65;;
18104;SDS011;9179;50.968;3.134;2023-03-23T10:04:53;4.32;;;2.35;;
18104;SDS011;9179;50.968;3.134;2023-03-23T10:07:25;6.00;;;2.95;;
18104;SDS011;9179;50.968;3.134;2023-03-23T10:09:55;4.13;;;2.67;;
18104;SDS011;9179;50.968;3.134;2023-03-23T10:12:26;6.25;;;2.75;;
18104;SDS011;9179;50.968;3.134;2023-03-23T10:15:02;4.38;;;2.47;;
18104;SDS011;9179;50.968;3.134;2023-03-23T10:17:37;6.57;;;2.75;;
18104;SDS011;9179;50.968;3.134;2023-03-23T10:20:23;6.78;;;2.90;;
18104;SDS011;9179;50.968;3.134;2023-03-23T10:23:00;4.05;;;2.38;;
18104;SDS011;9179;50.968;3.134;2023-03-23T10:25:36;4.60;;;2.13;;
18104;SDS011;9179;50.968;3.134;2023-03-23T10:28:10;4.80;;;2.53;;
18104;SDS011;9179;50.968;3.134;2023-03-23T10:30:39;5.57;;;2.50;;
18104;SDS011;9179;50.968;3.134;2023-03-23T10:33:13;6.20;;;3.03;;
18104;SDS011;9179;50.968;3.134;2023-03-23T10:35:44;6.05;;;2.85;;
18104;SDS011;9179;50.968;3.134;2023-03-23T10:38:17;6.50;;;3.08;;
18104;SDS011;9179;50.968;3.134;2023-03-23T10:40:49;5.28;;;2.58;;
18104;SDS011;9179;50.968;3.134;2023-03-23T10:43:19;5.88;;;3.05;;
18104;SDS011;9179;50.968;3.134;2023-03-23T10:45:48;8.57;;;3.60;;
18104;SDS011;9179;50.968;3.134;2023-03-23T10:48:20;7.78;;;3.17;;
18104;SDS011;9179;50.968;3.134;2023-03-23T10:50:52;8.88;;;3.50;;
18104;SDS011;9179;50.968;3.134;2023-03-23T10:53:25;6.22;;;2.95;;
18104;SDS011;9179;50.968;3.134;2023-03-23T10:55:57;7.53;;;3.00;;
18104;SDS011;9179;50.968;3.134;2023-03-23T10:58:25;5.18;;;2.88;;
18104;SDS011;9179;50.968;3.134;2023-03-23T11:00:55;7.68;;;3.45;;
18104;SDS011;9179;50.968;3.134;2023-03-23T11:03:28;6.03;;;3.38;;
18104;SDS011;9179;50.968;3.134;2023-03-23T11:06:04;10.07;;;3.63;;
18104;SDS011;9179;50.968;3.134;2023-03-23T11:08:34;5.13;;;2.80;;
18104;SDS011;9179;50.968;3.134;2023-03-23T11:11:08;6.70;;;3.60;;
18104;SDS011;9179;50.968;3.134;2023-03-23T11:13:39;4.78;;;2.78;;
18104;SDS011;9179;50.968;3.134;2023-03-23T11:16:09;8.43;;;3.60;;
18104;SDS011;9179;50.968;3.134;2023-03-23T11:18:47;9.13;;;3.70;;
18104;SDS011;9179;50.968;3.134;2023-03-23T11:21:14;6.35;;;3.30;;
18104;SDS011;9179;50.968;3.134;2023-03-23T11:23:47;6.82;;;3.20;;
18104;SDS011;9179;50.968;3.134;2023-03-23T11:26:17;9.10;;;4.05;;
18104;SDS011;9179;50.968;3.134;2023-03-23T11:28:48;8.05;;;3.78;;
18104;SDS011;9179;50.968;3.134;2023-03-23T11:31:21;6.57;;;3.65;;
18104;SDS011;9179;50.968;3.134;2023-03-23T11:33:51;13.40;;;4.45;;
18104;SDS011;9179;50.968;3.134;2023-03-23T11:36:21;10.20;;;3.53;;
18104;SDS011;9179;50.968;3.134;2023-03-23T11:38:58;11.07;;;3.33;;
18104;SDS011;9179;50.968;3.134;2023-03-23T11:41:28;6.03;;;2.90;;
18104;SDS011;9179;50.968;3.134;2023-03-23T11:43:58;8.65;;;3.75;;
18104;SDS011;9179;50.968;3.134;2023-03-23T11:46:37;9.05;;;4.07;;
18104;SDS011;9179;50.968;3.134;2023-03-23T11:49:12;7.40;;;3.60;;
18104;SDS011;9179;50.968;3.134;2023-03-23T11:51:47;7.55;;;3.50;;
18104;SDS011;9179;50.968;3.134;2023-03-23T11:54:23;6.65;;;3.70;;
18104;SDS011;9179;50.968;3.134;2023-03-23T11:56:56;8.75;;;4.38;;
18104;SDS011;9179;50.968;3.134;2023-03-23T11:59:27;10.00;;;4.10;;
18104;SDS011;9179;50.968;3.134;2023-03-23T12:01:59;6.38;;;3.90;;
18104;SDS011;9179;50.968;3.134;2023-03-23T12:04:41;5.78;;;3.22;;
18104;SDS011;9179;50.968;3.134;2023-03-23T12:07:28;7.85;;;3.72;;
18104;SDS011;9179;50.968;3.134;2023-03-23T12:10:10;8.77;;;3.42;;
18104;SDS011;9179;50.968;3.134;2023-03-23T12:12:51;9.15;;;2.88;;
18104;SDS011;9179;50.968;3.134;2023-03-23T12:15:28;5.50;;;3.13;;
18104;SDS011;9179;50.968;3.134;2023-03-23T12:18:03;10.75;;;2.90;;
18104;SDS011;9179;50.968;3.134;2023-03-23T12:20:39;9.10;;;3.33;;
18104;SDS011;9179;50.968;3.134;2023-03-23T12:23:20;8.45;;;3.72;;
18104;SDS011;9179;50.968;3.134;2023-03-23T12:26:04;6.90;;;3.80;;
18104;SDS011;9179;50.968;3.134;2023-03-23T12:31:46;5.78;;;3.03;;
18104;SDS011;9179;50.968;3.134;2023-03-23T12:34:23;8.82;;;3.53;;
18104;SDS011;9179;50.968;3.134;2023-03-23T12:37:03;4.65;;;3.20;;
18104;SDS011;9179;50.968;3.134;2023-03-23T12:42:36;9.43;;;3.50;;
18104;SDS011;9179;50.968;3.134;2023-03-23T12:45:12;9.18;;;4.05;;
18104;SDS011;9179;50.968;3.134;2023-03-23T12:47:48;10.38;;;3.67;;
18104;SDS011;9179;50.968;3.134;2023-03-23T12:50:21;4.30;;;2.58;;
18104;SDS011;9179;50.968;3.134;2023-03-23T12:52:53;5.80;;;2.83;;
18104;SDS011;9179;50.968;3.134;2023-03-23T12:55:25;9.88;;;3.67;;
18104;SDS011;9179;50.968;3.134;2023-03-23T12:58:01;5.88;;;3.13;;
18104;SDS011;9179;50.968;3.134;2023-03-23T13:00:33;7.68;;;3.40;;
18104;SDS011;9179;50.968;3.134;2023-03-23T13:03:17;5.70;;;3.03;;
18104;SDS011;9179;50.968;3.134;2023-03-23T13:05:52;5.70;;;3.17;;
18104;SDS011;9179;50.968;3.134;2023-03-23T13:08:25;8.93;;;3.63;;
18104;SDS011;9179;50.968;3.134;2023-03-23T13:10:55;6.95;;;3.58;;
18104;SDS011;9179;50.968;3.134;2023-03-23T13:13:39;11.25;;;3.30;;
18104;SDS011;9179;50.968;3.134;2023-03-23T13:16:10;7.22;;;3.28;;
18104;SDS011;9179;50.968;3.134;2023-03-23T13:18:44;5.85;;;3.15;;
18104;SDS011;9179;50.968;3.134;2023-03-23T13:21:17;6.15;;;2.80;;
18104;SDS011;9179;50.968;3.134;2023-03-23T13:23:50;6.28;;;3.63;;
18104;SDS011;9179;50.968;3.134;2023-03-23T13:26:22;11.27;;;3.38;;
18104;SDS011;9179;50.968;3.134;2023-03-23T13:28:57;5.38;;;2.97;;
18104;SDS011;9179;50.968;3.134;2023-03-23T13:31:27;8.93;;;3.33;;
18104;SDS011;9179;50.968;3.134;2023-03-23T13:33:59;8.68;;;3.45;;
18104;SDS011;9179;50.968;3.134;2023-03-23T13:36:30;9.20;;;3.50;;
18104;SDS011;9179;50.968;3.134;2023-03-23T13:39:01;5.88;;;2.63;;
18104;SDS011;9179;50.968;3.134;2023-03-23T13:41:32;6.05;;;3.40;;
18104;SDS011;9179;50.968;3.134;2023-03-23T13:44:15;5.25;;;2.70;;
18104;SDS011;9179;50.968;3.134;2023-03-23T13:46:53;4.40;;;2.78;;
18104;SDS011;9179;50.968;3.134;2023-03-23T13:49:23;10.35;;;4.25;;
18104;SDS011;9179;50.968;3.134;2023-03-23T13:52:01;5.60;;;2.92;;
18104;SDS011;9179;50.968;3.134;2023-03-23T13:54:42;6.55;;;3.25;;
18104;SDS011;9179;50.968;3.134;2023-03-23T13:57:33;9.07;;;3.70;;
18104;SDS011;9179;50.968;3.134;2023-03-23T14:03:03;7.22;;;3.47;;
18104;SDS011;9179;50.968;3.134;2023-03-23T14:05:37;9.27;;;3.88;;
18104;SDS011;9179;50.968;3.134;2023-03-23T14:08:11;4.50;;;2.85;;
18104;SDS011;9179;50.968;3.134;2023-03-23T14:10:41;7.97;;;3.05;;
18104;SDS011;9179;50.968;3.134;2023-03-23T14:13:17;5.97;;;2.75;;
18104;SDS011;9179;50.968;3.134;2023-03-23T14:15:55;6.43;;;3.30;;
18104;SDS011;9179;50.968;3.134;2023-03-23T14:18:27;7.03;;;2.78;;
18104;SDS011;9179;50.968;3.134;2023-03-23T14:20:57;7.93;;;4.07;;
18104;SDS011;9179;50.968;3.134;2023-03-23T14:23:25;8.40;;;4.32;;
18104;SDS011;9179;50.968;3.134;2023-03-23T14:25:56;7.15;;;3.40;;
18104;SDS011;9179;50.968;3.134;2023-03-23T14:28:30;7.47;;;3.10;;
18104;SDS011;9179;50.968;3.134;2023-03-23T14:30:59;5.93;;;2.83;;
18104;SDS011;9179;50.968;3.134;2023-03-23T14:33:26;6.30;;;2.90;;
18104;SDS011;9179;50.968;3.134;2023-03-23T14:35:53;4.85;;;2.97;;
18104;SDS011;9179;50.968;3.134;2023-03-23T14:38:24;6.85;;;3.67;;
18104;SDS011;9179;50.968;3.134;2023-03-23T14:40:59;6.70;;;3.10;;
18104;SDS011;9179;50.968;3.134;2023-03-23T14:43:27;6.28;;;2.90;;
18104;SDS011;9179;50.968;3.134;2023-03-23T14:45:57;8.75;;;3.38;;
18104;SDS011;9179;50.968;3.134;2023-03-23T14:48:27;6.03;;;3.28;;
18104;SDS011;9179;50.968;3.134;2023-03-23T14:50:56;4.90;;;3.08;;
18104;SDS011;9179;50.968;3.134;2023-03-23T14:53:29;8.70;;;3.38;;
18104;SDS011;9179;50.968;3.134;2023-03-23T14:55:59;5.22;;;2.83;;
18104;SDS011;9179;50.968;3.134;2023-03-23T14:58:29;4.38;;;2.80;;
18104;SDS011;9179;50.968;3.134;2023-03-23T15:00:58;4.00;;;3.05;;
18104;SDS011;9179;50.968;3.134;2023-03-23T15:03:31;10.25;;;4.00;;
18104;SDS011;9179;50.968;3.134;2023-03-23T15:06:03;8.18;;;3.08;;
18104;SDS011;9179;50.968;3.134;2023-03-23T15:08:33;8.52;;;3.15;;
18104;SDS011;9179;50.968;3.134;2023-03-23T15:11:03;6.93;;;2.85;;
18104;SDS011;9179;50.968;3.134;2023-03-23T15:13:34;8.02;;;3.40;;
18104;SDS011;9179;50.968;3.134;2023-03-23T15:16:05;7.70;;;3.13;;
18104;SDS011;9179;50.968;3.134;2023-03-23T15:18:37;3.80;;;2.70;;
18104;SDS011;9179;50.968;3.134;2023-03-23T15:21:10;5.60;;;2.75;;
18104;SDS011;9179;50.968;3.134;2023-03-23T15:23:45;5.28;;;3.15;;
18104;SDS011;9179;50.968;3.134;2023-03-23T15:26:18;6.72;;;3.28;;
18104;SDS011;9179;50.968;3.134;2023-03-23T15:29:10;9.25;;;4.07;;
18104;SDS011;9179;50.968;3.134;2023-03-23T15:31:43;8.10;;;3.08;;
18104;SDS011;9179;50.968;3.134;2023-03-23T15:34:20;6.38;;;3.75;;
18104;SDS011;9179;50.968;3.134;2023-03-23T15:36:55;6.18;;;3.58;;